| time (UTC) | temp F | wind direction | speed knots | gust knots | rain 1hr in | rain 24hr in | rain mn in | humidity % | barometer mb |
| 20260906214739 | 74 | 157 | 1.7 | 2.6 | 0.00 | 0.00 | 0.00 | 63 | 985.4 |
| 20260906214239 | 74 | 113 | 2.6 | 3.5 | 0.00 | 0.00 | 0.00 | 59 | 985.4 |
| 20260906213739 | 75 | 117 | 0.9 | 3.5 | 0.00 | 0.00 | 0.00 | 57 | 985.4 |
| 20260906213238 | 75 | 134 | 2.6 | 6.1 | 0.00 | 0.00 | 0.00 | 59 | 985.3 |
| 20260906212738 | 76 | 150 | 3.5 | 5.2 | 0.00 | 0.00 | 0.00 | 57 | 985.3 |
| 20260906212238 | 76 | 109 | 4.3 | 5.2 | 0.00 | 0.00 | 0.00 | 56 | 985.3 |
| 20260906211738 | 76 | 143 | 2.6 | 3.5 | 0.00 | 0.00 | 0.00 | 55 | 985.3 |
| 20260906211237 | 76 | 146 | 2.6 | 4.3 | 0.00 | 0.00 | 0.00 | 52 | 985.2 |
| 20260906210736 | 74 | 28 | 2.6 | 3.5 | 0.00 | 0.00 | 0.00 | 55 | 985.3 |
| 20260906210236 | 74 | 182 | 0.9 | 1.7 | 0.00 | 0.00 | 0.00 | 60 | 985.4 |
| 20260906205736 | 74 | 61 | 2.6 | 4.3 | 0.00 | 0.00 | 0.00 | 60 | 985.3 |
| 20260906205236 | 74 | 86 | 3.5 | 5.2 | 0.00 | 0.00 | 0.00 | 61 | 985.3 |
| 20260906204735 | 75 | 74 | 3.5 | 7.0 | 0.00 | 0.00 | 0.00 | 58 | 985.2 |
| 20260906204235 | 76 | 108 | 3.5 | 5.2 | 0.00 | 0.00 | 0.00 | 54 | 985.2 |
| 20260906203735 | 76 | 115 | 3.5 | 4.3 | 0.00 | 0.00 | 0.00 | 51 | 985.1 |
| 20260906203235 | 75 | 155 | 1.7 | 2.6 | 0.00 | 0.00 | 0.00 | 56 | 985.1 |
| 20260906202735 | 75 | 165 | 1.7 | 3.5 | 0.00 | 0.00 | 0.00 | 57 | 985.1 |
| 20260906202234 | 76 | 145 | 1.7 | 2.6 | 0.00 | 0.00 | 0.00 | 56 | 985.0 |
| 20260906201734 | 76 | 88 | 3.5 | 6.1 | 0.00 | 0.00 | 0.00 | 55 | 985.0 |
| 20260906201234 | 76 | 89 | 5.2 | 7.0 | 0.00 | 0.00 | 0.00 | 51 | 985.0 |
| 20260906195651 | 76 | 55 | 1.7 | 2.6 | 0.00 | 0.00 | 0.00 | 53 | 985.1 |
| 20260906195151 | 76 | 76 | 3.5 | 6.1 | 0.00 | 0.00 | 0.00 | 53 | 985.1 |
| 20260906194651 | 76 | 116 | 5.2 | 8.7 | 0.00 | 0.00 | 0.00 | 52 | 985.1 |
| 20260906194151 | 76 | 139 | 2.6 | 4.3 | 0.00 | 0.00 | 0.00 | 53 | 985.2 |
| 20260906193650 | 76 | 140 | 3.5 | 4.3 | 0.00 | 0.00 | 0.00 | 52 | 985.4 |
| 20260906193150 | 76 | 174 | 1.7 | 2.6 | 0.00 | 0.00 | 0.00 | 52 | 985.4 |
| 20260906192650 | 76 | 135 | 4.3 | 5.2 | 0.00 | 0.00 | 0.00 | 51 | 985.5 |
| 20260906192150 | 76 | 127 | 2.6 | 5.2 | 0.00 | 0.00 | 0.00 | 52 | 985.5 |
| 20260906191649 | 76 | 158 | 3.5 | 6.1 | 0.00 | 0.00 | 0.00 | 51 | 985.6 |
| 20260906191149 | 76 | 101 | 3.5 | 7.0 | 0.00 | 0.00 | 0.00 | 53 | 985.6 |
| 20260906190649 | 75 | 156 | 2.6 | 3.5 | 0.00 | 0.00 | 0.00 | 52 | 985.7 |
| 20260906190149 | 75 | 69 | 2.6 | 3.5 | 0.00 | 0.00 | 0.00 | 56 | 985.7 |
| 20260906185648 | 75 | 105 | 1.7 | 2.6 | 0.00 | 0.00 | 0.00 | 56 | 985.8 |
| 20260906185148 | 75 | 106 | 2.6 | 3.5 | 0.00 | 0.00 | 0.00 | 54 | 985.8 |
| 20260906184126 | 74 | 105 | 1.7 | 2.6 | 0.00 | 0.00 | 0.00 | 54 | 985.8 |
| 20260906183626 | 75 | 0 | 2.6 | 4.3 | 0.00 | 0.00 | 0.00 | 54 | 985.7 |
| 20260906182604 | 74 | 111 | 4.3 | 7.0 | 0.00 | 0.00 | 0.00 | 55 | 985.8 |
| 20260906182103 | 73 | 233 | 2.6 | 3.5 | 0.00 | 0.00 | 0.00 | 59 | 985.9 |
| 20260906181603 | 73 | 110 | 1.7 | 3.5 | 0.00 | 0.00 | 0.00 | 60 | 986.0 |
| 20260906181102 | 73 | 0 | 0.0 | 0.0 | 0.00 | 0.00 | 0.00 | 62 | 986.0 |
| 20260906180041 | 73 | 113 | 2.6 | 3.5 | 0.00 | 0.00 | 0.00 | 60 | 986.1 |
| 20260906175541 | 73 | 87 | 3.5 | 5.2 | 0.00 | 0.00 | 0.00 | 61 | 986.2 |
| 20260906175041 | 74 | 49 | 1.7 | 3.5 | 0.00 | 0.00 | 0.00 | 58 | 986.2 |
| 20260906174540 | 74 | 1 | 1.7 | 5.2 | 0.00 | 0.00 | 0.00 | 57 | 986.3 |
| 20260906174040 | 74 | 75 | 0.9 | 2.6 | 0.00 | 0.00 | 0.00 | 57 | 986.3 |
| 20260906173019 | 73 | 166 | 0.9 | 2.6 | 0.00 | 0.00 | 0.00 | 61 | 986.3 |
| 20260906172519 | 73 | 113 | 3.5 | 6.1 | 0.00 | 0.00 | 0.00 | 61 | 986.3 |
| 20260906171457 | 74 | 131 | 3.5 | 5.2 | 0.00 | 0.00 | 0.00 | 57 | 986.3 |
| 20260906170957 | 74 | 87 | 2.6 | 5.2 | 0.00 | 0.00 | 0.00 | 59 | 986.3 |
| 20260906170457 | 74 | 145 | 3.5 | 5.2 | 0.00 | 0.00 | 0.00 | 60 | 986.3 |
| 20260906165957 | 73 | 148 | 3.5 | 4.3 | 0.00 | 0.00 | 0.00 | 58 | 986.3 |
| 20260906164934 | 73 | 115 | 4.3 | 5.2 | 0.00 | 0.00 | 0.00 | 62 | 986.3 |
| 20260906164434 | 73 | 75 | 2.6 | 3.5 | 0.00 | 0.00 | 0.00 | 60 | 986.3 |
| 20260906163413 | 72 | 100 | 2.6 | 4.3 | 0.00 | 0.00 | 0.00 | 65 | 986.3 |
| 20260906162913 | 72 | 104 | 2.6 | 4.3 | 0.00 | 0.00 | 0.00 | 63 | 986.3 |
| 20260906162412 | 72 | 114 | 4.3 | 6.1 | 0.00 | 0.00 | 0.00 | 61 | 986.4 |
| 20260906161912 | 72 | 39 | 2.6 | 5.2 | 0.00 | 0.00 | 0.00 | 61 | 986.4 |
| 20260906161411 | 72 | 57 | 1.7 | 3.5 | 0.00 | 0.00 | 0.00 | 64 | 986.5 |
| 20260906160911 | 72 | 113 | 4.3 | 7.8 | 0.00 | 0.00 | 0.00 | 62 | 986.5 |
| 20260906160410 | 72 | 126 | 4.3 | 7.8 | 0.00 | 0.00 | 0.00 | 63 | 986.5 |
| 20260906155910 | 71 | 152 | 2.6 | 4.3 | 0.00 | 0.00 | 0.00 | 64 | 986.5 |
| 20260906154848 | 71 | 136 | 3.5 | 7.0 | 0.00 | 0.00 | 0.00 | 65 | 986.5 |
| 20260906154348 | 71 | 71 | 2.6 | 6.1 | 0.00 | 0.00 | 0.00 | 67 | 986.5 |
| 20260906153848 | 71 | 134 | 3.5 | 5.2 | 0.00 | 0.00 | 0.00 | 67 | 986.5 |
| 20260906153348 | 71 | 132 | 3.5 | 6.1 | 0.00 | 0.00 | 0.00 | 68 | 986.6 |
| 20260906152848 | 71 | 128 | 4.3 | 7.8 | 0.00 | 0.00 | 0.00 | 67 | 986.5 |
| 20260906152347 | 71 | 115 | 2.6 | 5.2 | 0.00 | 0.00 | 0.00 | 68 | 986.5 |
| 20260906151846 | 71 | 118 | 3.5 | 7.8 | 0.00 | 0.00 | 0.00 | 70 | 986.4 |
| 20260906151345 | 70 | 108 | 2.6 | 5.2 | 0.00 | 0.00 | 0.00 | 72 | 986.4 |
| 20260906150845 | 70 | 160 | 2.6 | 4.3 | 0.00 | 0.00 | 0.00 | 72 | 986.4 |
| 20260906150345 | 70 | 112 | 3.5 | 7.0 | 0.00 | 0.00 | 0.00 | 71 | 986.5 |
| 20260906145845 | 70 | 104 | 2.6 | 5.2 | 0.00 | 0.00 | 0.00 | 72 | 986.5 |
| 20260906145344 | 70 | 81 | 2.6 | 2.6 | 0.00 | 0.00 | 0.00 | 73 | 986.5 |
| 20260906144323 | 69 | 138 | 4.3 | 5.2 | 0.00 | 0.00 | 0.00 | 74 | 986.5 |
| 20260906143822 | 69 | 127 | 3.5 | 4.3 | 0.00 | 0.00 | 0.00 | 76 | 986.5 |
| 20260906143322 | 69 | 118 | 3.5 | 4.3 | 0.00 | 0.00 | 0.00 | 76 | 986.5 |
| 20260906142821 | 69 | 144 | 2.6 | 4.3 | 0.00 | 0.00 | 0.00 | 78 | 986.6 |
| 20260906141759 | 68 | 154 | 2.6 | 5.2 | 0.00 | 0.00 | 0.00 | 79 | 986.6 |
| 20260906141259 | 68 | 131 | 4.3 | 6.1 | 0.00 | 0.00 | 0.00 | 79 | 986.6 |
| 20260906140759 | 67 | 66 | 1.7 | 3.5 | 0.00 | 0.00 | 0.00 | 81 | 986.6 |
| 20260906140259 | 67 | 130 | 4.3 | 5.2 | 0.00 | 0.00 | 0.00 | 82 | 986.6 |
| 20260906135759 | 67 | 142 | 3.5 | 5.2 | 0.00 | 0.00 | 0.00 | 82 | 986.6 |
| 20260906135258 | 67 | 124 | 3.5 | 6.1 | 0.00 | 0.00 | 0.00 | 81 | 986.6 |
| 20260906134758 | 67 | 127 | 2.6 | 4.3 | 0.00 | 0.00 | 0.00 | 82 | 986.6 |
| 20260906134258 | 67 | 116 | 3.5 | 5.2 | 0.00 | 0.00 | 0.00 | 82 | 986.5 |
| 20260906133236 | 66 | 160 | 2.6 | 4.3 | 0.00 | 0.00 | 0.00 | 83 | 986.5 |
| 20260906132736 | 66 | 109 | 1.7 | 2.6 | 0.00 | 0.00 | 0.00 | 85 | 986.5 |
| 20260906132236 | 65 | 102 | 2.6 | 4.3 | 0.00 | 0.00 | 0.00 | 85 | 986.5 |
| 20260906131736 | 65 | 85 | 2.6 | 4.3 | 0.00 | 0.00 | 0.00 | 85 | 986.4 |
| 20260906131236 | 65 | 117 | 4.3 | 7.0 | 0.00 | 0.00 | 0.00 | 85 | 986.4 |
| 20260906130735 | 65 | 131 | 3.5 | 5.2 | 0.00 | 0.00 | 0.00 | 86 | 986.3 |
| 20260906130235 | 65 | 100 | 3.5 | 6.1 | 0.00 | 0.00 | 0.00 | 86 | 986.2 |
| 20260906125735 | 65 | 136 | 3.5 | 5.2 | 0.00 | 0.00 | 0.00 | 86 | 986.2 |
| 20260906125235 | 64 | 102 | 1.7 | 2.6 | 0.00 | 0.00 | 0.00 | 86 | 986.2 |
| 20260906124735 | 64 | 120 | 2.6 | 3.5 | 0.00 | 0.00 | 0.00 | 87 | 986.3 |
| 20260906124234 | 64 | 73 | 2.6 | 3.5 | 0.00 | 0.00 | 0.00 | 87 | 986.3 |
| 20260906123734 | 63 | 80 | 1.7 | 3.5 | 0.00 | 0.00 | 0.00 | 88 | 986.2 |
| 20260906123234 | 63 | 91 | 1.7 | 4.3 | 0.00 | 0.00 | 0.00 | 88 | 986.2 |
| 20260906122734 | 63 | 70 | 3.5 | 4.3 | 0.00 | 0.00 | 0.00 | 89 | 986.2 |
| 20260906122233 | 62 | 69 | 1.7 | 3.5 | 0.00 | 0.00 | 0.00 | 90 | 986.1 |
| 20260906121212 | 62 | 140 | 0.9 | 2.6 | 0.00 | 0.00 | 0.00 | 91 | 986.0 |
| 20260906120151 | 61 | 125 | 1.7 | 2.6 | 0.00 | 0.00 | 0.00 | 93 | 985.9 |
| 20260906114607 | 59 | 90 | 2.6 | 4.3 | 0.00 | 0.00 | 0.00 | 95 | 985.7 |
| 20260906114107 | 58 | 85 | 0.9 | 1.7 | 0.00 | 0.00 | 0.00 | 96 | 985.6 |
| 20260906113606 | 58 | 92 | 1.7 | 2.6 | 0.00 | 0.00 | 0.00 | 96 | 985.6 |
| 20260906113105 | 57 | 61 | 2.6 | 3.5 | 0.00 | 0.00 | 0.00 | 96 | 985.5 |
| 20260906112043 | 57 | 0 | 0.0 | 0.0 | 0.00 | 0.00 | 0.00 | 96 | 985.5 |
| 20260906111022 | 56 | 37 | 0.9 | 1.7 | 0.00 | 0.00 | 0.00 | 96 | 985.4 |
| 20260906110522 | 56 | 0 | 0.0 | 0.0 | 0.00 | 0.00 | 0.00 | 97 | 985.3 |
| 20260906110022 | 56 | 0 | 0.0 | 0.0 | 0.00 | 0.00 | 0.00 | 97 | 985.3 |
| 20260906105522 | 56 | 39 | 0.9 | 1.7 | 0.00 | 0.00 | 0.00 | 97 | 985.3 |
| 20260906104500 | 57 | 0 | 0.0 | 0.0 | 0.00 | 0.00 | 0.00 | 97 | 985.2 |
| 20260906104000 | 57 | 0 | 0.0 | 0.0 | 0.00 | 0.00 | 0.00 | 97 | 985.3 |
| 20260906103500 | 56 | 0 | 0.0 | 0.0 | 0.00 | 0.00 | 0.00 | 97 | 985.3 |
| 20260906102959 | 56 | 0 | 0.0 | 0.0 | 0.00 | 0.00 | 0.00 | 97 | 985.3 |
| 20260906102459 | 56 | 0 | 0.0 | 0.0 | 0.00 | 0.00 | 0.00 | 97 | 985.2 |
| 20260906101959 | 56 | 0 | 0.0 | 0.0 | 0.00 | 0.00 | 0.00 | 97 | 985.2 |
| 20260906101459 | 56 | 0 | 0.0 | 0.0 | 0.00 | 0.00 | 0.00 | 97 | 985.2 |
| 20260906100959 | 56 | 0 | 0.0 | 0.0 | 0.00 | 0.00 | 0.00 | 97 | 985.2 |
| 20260906100458 | 56 | 0 | 0.0 | 0.0 | 0.00 | 0.00 | 0.00 | 97 | 985.2 |
| 20260906095958 | 56 | 0 | 0.0 | 0.0 | 0.00 | 0.00 | 0.00 | 97 | 985.1 |
| 20260906095458 | 56 | 0 | 0.0 | 0.0 | 0.00 | 0.00 | 0.00 | 96 | 985.1 |
| 20260906094958 | 56 | 0 | 0.0 | 0.0 | 0.00 | 0.00 | 0.00 | 96 | 985.1 |
| 20260906094457 | 56 | 0 | 0.0 | 0.0 | 0.00 | 0.00 | 0.00 | 96 | 985.2 |
| 20260906093436 | 56 | 0 | 0.0 | 0.0 | 0.00 | 0.00 | 0.00 | 96 | 985.1 |
| 20260906092936 | 56 | 0 | 0.0 | 0.0 | 0.00 | 0.00 | 0.00 | 96 | 984.9 |
| 20260906092436 | 56 | 0 | 0.0 | 0.0 | 0.00 | 0.00 | 0.00 | 96 | 984.9 |
| 20260906091935 | 56 | 0 | 0.0 | 0.0 | 0.00 | 0.00 | 0.00 | 96 | 984.9 |
| 20260906091435 | 56 | 0 | 0.0 | 0.0 | 0.00 | 0.00 | 0.00 | 96 | 984.9 |
| 20260906090935 | 56 | 0 | 0.0 | 0.0 | 0.00 | 0.00 | 0.00 | 96 | 984.8 |
| 20260906090435 | 56 | 0 | 0.0 | 0.0 | 0.00 | 0.00 | 0.00 | 96 | 984.8 |
| 20260906085935 | 57 | 0 | 0.0 | 0.0 | 0.00 | 0.00 | 0.00 | 96 | 984.8 |
| 20260906085434 | 57 | 0 | 0.0 | 0.0 | 0.00 | 0.00 | 0.00 | 96 | 984.8 |
| 20260906084934 | 57 | 0 | 0.0 | 0.0 | 0.00 | 0.00 | 0.00 | 96 | 984.7 |
| 20260906084434 | 57 | 0 | 0.0 | 0.0 | 0.00 | 0.00 | 0.00 | 96 | 984.6 |
| 20260906083934 | 58 | 0 | 0.0 | 0.0 | 0.00 | 0.00 | 0.00 | 96 | 984.5 |
| 20260906083434 | 58 | 0 | 0.0 | 0.0 | 0.00 | 0.00 | 0.00 | 97 | 984.5 |
| 20260906082934 | 58 | 0 | 0.0 | 0.0 | 0.00 | 0.00 | 0.00 | 97 | 984.4 |
| 20260906082433 | 58 | 0 | 0.0 | 0.0 | 0.00 | 0.00 | 0.00 | 96 | 984.4 |
| 20260906081933 | 59 | 0 | 0.0 | 0.0 | 0.00 | 0.00 | 0.00 | 96 | 984.3 |
| 20260906081433 | 59 | 0 | 0.0 | 0.0 | 0.00 | 0.00 | 0.00 | 96 | 984.3 |
| 20260906080933 | 59 | 48 | 0.0 | 0.9 | 0.00 | 0.00 | 0.00 | 96 | 984.3 |
| 20260906080432 | 59 | 0 | 0.0 | 0.0 | 0.00 | 0.00 | 0.00 | 96 | 984.2 |
| 20260906075932 | 59 | 0 | 0.0 | 0.0 | 0.00 | 0.00 | 0.00 | 96 | 984.1 |
| 20260906075432 | 59 | 177 | 0.9 | 1.7 | 0.00 | 0.00 | 0.00 | 96 | 984.2 |
| 20260906074932 | 59 | 171 | 0.9 | 1.7 | 0.00 | 0.00 | 0.00 | 96 | 984.2 |
| 20260906074431 | 59 | 96 | 0.9 | 1.7 | 0.00 | 0.00 | 0.00 | 96 | 984.1 |
| 20260906073931 | 59 | 185 | 0.9 | 1.7 | 0.00 | 0.00 | 0.00 | 96 | 984.2 |
| 20260906073431 | 59 | 0 | 0.0 | 0.0 | 0.00 | 0.00 | 0.00 | 96 | 984.2 |
| 20260906072931 | 59 | 0 | 0.0 | 0.0 | 0.00 | 0.00 | 0.00 | 96 | 984.1 |
| 20260906072430 | 60 | 53 | 0.9 | 1.7 | 0.00 | 0.00 | 0.00 | 96 | 984.1 |
| 20260906071929 | 60 | 36 | 0.9 | 1.7 | 0.00 | 0.00 | 0.00 | 96 | 984.1 |
| 20260906071429 | 60 | 148 | 0.9 | 0.9 | 0.00 | 0.00 | 0.00 | 96 | 984.0 |
| 20260906070929 | 60 | 32 | 0.9 | 1.7 | 0.00 | 0.00 | 0.00 | 96 | 984.0 |
| 20260906070429 | 59 | 53 | 0.9 | 1.7 | 0.00 | 0.00 | 0.00 | 96 | 984.1 |
| 20260906065929 | 59 | 149 | 1.7 | 2.6 | 0.00 | 0.00 | 0.00 | 96 | 984.1 |
| 20260906064346 | 60 | 0 | 0.0 | 0.0 | 0.00 | 0.00 | 0.00 | 96 | 984.0 |
| 20260906063325 | 60 | 0 | 0.0 | 0.0 | 0.00 | 0.00 | 0.00 | 96 | 984.0 |
| 20260906062824 | 60 | 142 | 0.9 | 1.7 | 0.00 | 0.00 | 0.00 | 96 | 984.0 |
| 20260906062324 | 60 | 51 | 1.7 | 3.5 | 0.00 | 0.00 | 0.00 | 96 | 984.0 |
| 20260906061824 | 60 | 0 | 0.0 | 0.0 | 0.00 | 0.00 | 0.00 | 96 | 984.0 |
| 20260906060802 | 60 | 339 | 0.9 | 0.9 | 0.00 | 0.00 | 0.00 | 96 | 984.0 |
| 20260906060302 | 60 | 179 | 0.0 | 0.9 | 0.00 | 0.00 | 0.00 | 95 | 984.0 |
| 20260906055801 | 60 | 66 | 0.9 | 2.6 | 0.00 | 0.00 | 0.00 | 95 | 984.0 |
| 20260906054740 | 60 | 94 | 0.9 | 0.9 | 0.00 | 0.00 | 0.00 | 95 | 984.1 |
| 20260906054240 | 60 | 133 | 0.9 | 0.9 | 0.00 | 0.00 | 0.00 | 95 | 984.0 |
| 20260906053218 | 60 | 0 | 0.0 | 0.0 | 0.00 | 0.00 | 0.00 | 95 | 984.1 |
| 20260906052718 | 60 | 56 | 0.9 | 1.7 | 0.00 | 0.00 | 0.00 | 95 | 984.1 |
| 20260906052218 | 60 | 122 | 0.9 | 0.9 | 0.00 | 0.00 | 0.00 | 96 | 984.2 |
| 20260906051718 | 60 | 0 | 0.0 | 0.0 | 0.00 | 0.00 | 0.00 | 95 | 984.1 |
| 20260906051217 | 61 | 0 | 0.0 | 0.0 | 0.00 | 0.00 | 0.00 | 95 | 984.1 |
| 20260906050717 | 61 | 0 | 0.0 | 0.0 | 0.00 | 0.00 | 0.00 | 95 | 984.0 |
| 20260906050217 | 61 | 91 | 0.9 | 1.7 | 0.00 | 0.00 | 0.00 | 95 | 984.0 |
| 20260906045717 | 61 | 87 | 0.9 | 2.6 | 0.00 | 0.00 | 0.00 | 95 | 984.0 |
| 20260906045216 | 61 | 0 | 0.0 | 0.0 | 0.00 | 0.00 | 0.00 | 95 | 984.0 |
| 20260906044716 | 61 | 0 | 0.0 | 0.0 | 0.00 | 0.00 | 0.00 | 94 | 984.0 |
| 20260906044216 | 61 | 0 | 0.0 | 0.0 | 0.00 | 0.00 | 0.00 | 94 | 984.0 |
| 20260906043716 | 61 | 63 | 0.9 | 1.7 | 0.00 | 0.00 | 0.00 | 93 | 984.0 |
| 20260906043216 | 62 | 78 | 0.9 | 1.7 | 0.00 | 0.00 | 0.00 | 93 | 983.9 |
| 20260906042716 | 62 | 54 | 0.9 | 1.7 | 0.00 | 0.00 | 0.00 | 93 | 983.8 |
| 20260906042215 | 62 | 170 | 1.7 | 2.6 | 0.00 | 0.00 | 0.00 | 92 | 983.8 |
| 20260906041715 | 62 | 95 | 0.9 | 1.7 | 0.00 | 0.00 | 0.00 | 92 | 983.8 |
| 20260906041215 | 62 | 98 | 0.9 | 2.6 | 0.00 | 0.00 | 0.00 | 91 | 983.7 |
| 20260906040714 | 62 | 73 | 2.6 | 3.5 | 0.00 | 0.00 | 0.00 | 91 | 983.7 |
| 20260906040214 | 63 | 82 | 2.6 | 4.3 | 0.00 | 0.00 | 0.00 | 91 | 983.7 |
| 20260906035714 | 63 | 77 | 2.6 | 5.2 | 0.00 | 0.00 | 0.00 | 90 | 983.6 |
| 20260906035214 | 63 | 117 | 1.7 | 3.5 | 0.00 | 0.00 | 0.00 | 90 | 983.6 |
| 20260906034714 | 63 | 80 | 1.7 | 3.5 | 0.00 | 0.00 | 0.00 | 90 | 983.5 |
| 20260906033652 | 63 | 79 | 1.7 | 3.5 | 0.00 | 0.00 | 0.00 | 90 | 983.4 |
| 20260906033151 | 63 | 87 | 2.6 | 3.5 | 0.00 | 0.00 | 0.00 | 90 | 983.4 |
| 20260906032651 | 63 | 103 | 1.7 | 4.3 | 0.00 | 0.00 | 0.00 | 90 | 983.4 |
| 20260906032151 | 63 | 135 | 0.9 | 2.6 | 0.00 | 0.00 | 0.00 | 89 | 983.4 |
| 20260906031129 | 63 | 77 | 1.7 | 2.6 | 0.00 | 0.00 | 0.00 | 89 | 983.5 |
| 20260906030629 | 63 | 96 | 0.9 | 2.6 | 0.00 | 0.00 | 0.00 | 89 | 983.5 |
| 20260906030129 | 63 | 41 | 0.9 | 2.6 | 0.00 | 0.00 | 0.00 | 88 | 983.5 |
| 20260906025629 | 63 | 44 | 1.7 | 3.5 | 0.00 | 0.00 | 0.00 | 89 | 983.5 |
| 20260906025128 | 63 | 340 | 1.7 | 3.5 | 0.00 | 0.00 | 0.00 | 89 | 983.4 |
| 20260906024628 | 62 | 35 | 0.9 | 2.6 | 0.00 | 0.00 | 0.00 | 90 | 983.4 |
| 20260906024128 | 62 | 43 | 0.9 | 3.5 | 0.00 | 0.00 | 0.00 | 90 | 983.3 |
| 20260906023628 | 62 | 347 | 1.7 | 3.5 | 0.00 | 0.00 | 0.00 | 91 | 983.3 |
| 20260906022606 | 62 | 327 | 0.9 | 1.7 | 0.00 | 0.00 | 0.00 | 93 | 983.3 |
| 20260906022106 | 62 | 0 | 0.0 | 0.0 | 0.00 | 0.00 | 0.00 | 93 | 983.2 |
| 20260906021605 | 62 | 349 | 0.9 | 1.7 | 0.00 | 0.00 | 0.00 | 93 | 983.1 |
| 20260906021105 | 62 | 0 | 0.0 | 0.0 | 0.00 | 0.00 | 0.00 | 93 | 983.0 |
| 20260906020044 | 63 | 338 | 1.7 | 2.6 | 0.00 | 0.00 | 0.00 | 92 | 983.0 |
| 20260906015543 | 63 | 11 | 0.0 | 0.9 | 0.00 | 0.00 | 0.00 | 92 | 982.9 |
| 20260906015042 | 63 | 3 | 0.9 | 1.7 | 0.00 | 0.00 | 0.00 | 92 | 982.9 |
| 20260906014542 | 63 | 0 | 0.0 | 0.0 | 0.00 | 0.00 | 0.00 | 91 | 982.9 |
| 20260906014042 | 63 | 305 | 0.9 | 1.7 | 0.00 | 0.00 | 0.00 | 91 | 982.7 |
| 20260906013542 | 63 | 348 | 1.7 | 2.6 | 0.00 | 0.00 | 0.00 | 90 | 982.7 |
| 20260906013041 | 63 | 342 | 0.9 | 2.6 | 0.00 | 0.00 | 0.00 | 89 | 982.6 |
| 20260906012541 | 64 | 318 | 0.9 | 1.7 | 0.00 | 0.00 | 0.00 | 89 | 982.6 |
| 20260906012041 | 64 | 347 | 0.9 | 1.7 | 0.00 | 0.00 | 0.00 | 88 | 982.6 |
| 20260906011540 | 64 | 0 | 0.0 | 0.0 | 0.00 | 0.00 | 0.00 | 87 | 982.6 |
| 20260906011040 | 64 | 7 | 0.9 | 0.9 | 0.00 | 0.00 | 0.00 | 86 | 982.5 |
| 20260906010540 | 64 | 28 | 0.9 | 1.7 | 0.00 | 0.00 | 0.00 | 85 | 982.5 |
| 20260906010039 | 65 | 356 | 1.7 | 2.6 | 0.00 | 0.00 | 0.00 | 83 | 982.4 |
| 20260906005538 | 65 | 330 | 1.7 | 2.6 | 0.00 | 0.00 | 0.00 | 83 | 982.4 |
| 20260906005038 | 65 | 346 | 2.6 | 3.5 | 0.00 | 0.00 | 0.00 | 81 | 982.5 |
| 20260906003455 | 66 | 350 | 1.7 | 2.6 | 0.00 | 0.00 | 0.00 | 78 | 982.5 |
| 20260906002955 | 66 | 1 | 1.7 | 4.3 | 0.00 | 0.00 | 0.00 | 77 | 982.4 |
| 20260906002455 | 67 | 8 | 1.7 | 3.5 | 0.00 | 0.00 | 0.00 | 75 | 982.4 |
| 20260906001955 | 67 | 33 | 0.9 | 2.6 | 0.00 | 0.00 | 0.00 | 75 | 982.4 |
| 20260906001454 | 67 | 348 | 0.9 | 2.6 | 0.00 | 0.00 | 0.00 | 74 | 982.3 |
| 20260906000954 | 67 | 336 | 1.7 | 3.5 | 0.00 | 0.00 | 0.00 | 72 | 982.2 |
| 20260906000455 | 68 | 322 | 0.9 | 2.6 | 0.00 | 0.00 | 0.00 | 72 | 982.2 |
| 20260905235431 | 69 | 345 | 0.9 | 1.7 | 0.00 | 0.00 | 0.00 | 69 | 982.2 |
| 20260905234931 | 69 | 338 | 2.6 | 4.3 | 0.00 | 0.00 | 0.00 | 68 | 982.2 |
| 20260905234430 | 69 | 347 | 3.5 | 6.1 | 0.00 | 0.00 | 0.00 | 67 | 982.2 |
| 20260905232847 | 71 | 339 | 1.7 | 3.5 | 0.00 | 0.00 | 0.00 | 64 | 982.2 |
| 20260905232346 | 71 | 17 | 1.7 | 4.3 | 0.00 | 0.00 | 0.00 | 63 | 982.3 |
| 20260905231845 | 72 | 344 | 1.7 | 3.5 | 0.00 | 0.00 | 0.00 | 62 | 982.3 |
| 20260905231345 | 72 | 332 | 4.3 | 7.0 | 0.00 | 0.00 | 0.00 | 61 | 982.2 |
| 20260905230844 | 73 | 342 | 4.3 | 7.8 | 0.00 | 0.00 | 0.00 | 61 | 982.0 |
| 20260905230344 | 73 | 352 | 4.3 | 7.0 | 0.00 | 0.00 | 0.00 | 61 | 982.1 |
| 20260905225844 | 74 | 340 | 5.2 | 7.8 | 0.00 | 0.00 | 0.00 | 60 | 982.0 |
| 20260905225343 | 75 | 341 | 1.7 | 4.3 | 0.00 | 0.00 | 0.00 | 60 | 981.9 |
| 20260905224321 | 76 | 20 | 0.9 | 2.6 | 0.00 | 0.00 | 0.00 | 57 | 981.9 |
| 20260905223821 | 76 | 37 | 1.7 | 4.3 | 0.00 | 0.00 | 0.00 | 55 | 981.9 |
| 20260905223320 | 76 | 71 | 1.7 | 5.2 | 0.00 | 0.00 | 0.00 | 54 | 981.9 |
| 20260905222820 | 76 | 50 | 2.6 | 4.3 | 0.00 | 0.00 | 0.00 | 54 | 981.9 |
| 20260905222320 | 76 | 358 | 1.7 | 4.3 | 0.00 | 0.00 | 0.00 | 52 | 981.9 |
| 20260905221820 | 77 | 0 | 1.7 | 2.6 | 0.00 | 0.00 | 0.00 | 53 | 981.8 |
| 20260905221319 | 77 | 49 | 2.6 | 5.2 | 0.00 | 0.00 | 0.00 | 52 | 981.8 |
| 20260905220819 | 77 | 98 | 2.6 | 5.2 | 0.00 | 0.00 | 0.00 | 53 | 981.8 |
| 20260905220319 | 77 | 27 | 2.6 | 3.5 | 0.00 | 0.00 | 0.00 | 52 | 981.8 |
| 20260905215819 | 77 | 53 | 1.7 | 3.5 | 0.00 | 0.00 | 0.00 | 53 | 981.8 |
| 20260905215319 | 76 | 58 | 1.7 | 3.5 | 0.00 | 0.00 | 0.00 | 54 | 981.9 |